createdAt,value
2022-09-01T00:00:02.670Z,77190.81
2022-09-01T00:02:30.304Z,77196.78
2022-09-01T00:04:58.829Z,77206.72
2022-09-01T00:07:31.605Z,77200.75
2022-09-01T00:10:01.711Z,77200.75
2022-09-01T00:12:29.630Z,77206.72
2022-09-01T00:14:56.757Z,77202.75
2022-09-01T00:17:23.549Z,77196.78
2022-09-01T00:19:50.236Z,77204.72
2022-09-01T00:22:16.963Z,77198.75
2022-09-01T00:24:43.875Z,77196.78
2022-09-01T00:27:10.494Z,77186.84
2022-09-01T00:29:37.131Z,77198.75
2022-09-01T00:32:04.485Z,77210.69
2022-09-01T00:34:31.339Z,77214.66
2022-09-01T00:36:58.051Z,77204.72
2022-09-01T00:39:24.579Z,77206.72
2022-09-01T00:41:51.704Z,77208.69
2022-09-01T00:44:24.745Z,77190.81
2022-09-01T00:46:55.388Z,77202.75
2022-09-01T00:49:26.408Z,77214.66
2022-09-01T00:51:56.991Z,77212.69
2022-09-01T00:54:27.718Z,77226.59
2022-09-01T00:56:57.939Z,77228.56
2022-09-01T00:59:26.806Z,77236.53
2022-09-01T01:01:54.685Z,77228.56
2022-09-01T01:04:21.319Z,77230.56
2022-09-01T01:06:58.534Z,77222.63
2022-09-01T01:09:29.136Z,77226.59
2022-09-01T01:11:59.479Z,77222.63
2022-09-01T01:14:29.722Z,77222.63
2022-09-01T01:16:56.311Z,77220.63
2022-09-01T01:20:05.631Z,77222.63
2022-09-01T01:23:02.578Z,77222.63
2022-09-01T01:25:57.702Z,77234.53
2022-09-01T01:28:27.971Z,77234.53
2022-09-01T01:31:11.905Z,77236.53
2022-09-01T01:33:48.047Z,77248.44
2022-09-01T01:36:21.566Z,77252.44
2022-09-01T01:38:49.604Z,77260.38
2022-09-01T01:41:19.652Z,77246.47
2022-09-01T01:43:48.238Z,77248.44
2022-09-01T01:46:19.115Z,77246.47
2022-09-01T01:48:47.265Z,77238.50
2022-09-01T01:51:14.050Z,77240.50
2022-09-01T01:53:40.903Z,77252.44
2022-09-01T01:56:09.112Z,77246.47
2022-09-01T01:58:36.077Z,77242.50
2022-09-01T02:01:03.664Z,77244.47
2022-09-01T02:03:38.601Z,77266.34
2022-09-01T02:06:09.727Z,77270.31
2022-09-01T02:08:38.570Z,77270.31
2022-09-01T02:11:07.427Z,77284.22
2022-09-01T02:13:35.000Z,77288.22
2022-09-01T02:16:04.947Z,77274.28
2022-09-01T02:18:37.619Z,77282.25
2022-09-01T02:21:11.929Z,77290.19
2022-09-01T02:23:41.942Z,77294.16
2022-09-01T02:26:16.572Z,77286.22
2022-09-01T02:28:50.896Z,77284.22
2022-09-01T02:31:21.008Z,77284.22
2022-09-01T02:33:47.567Z,77294.16
2022-09-01T02:36:17.337Z,77284.22
2022-09-01T02:38:46.854Z,77276.28
2022-09-01T02:41:21.862Z,77280.25
2022-09-01T02:43:48.863Z,77288.22
2022-09-01T02:46:16.331Z,77282.25
2022-09-01T02:48:46.201Z,77300.13
2022-09-01T02:51:16.363Z,77290.19
2022-09-01T02:53:44.315Z,77296.16
2022-09-01T02:56:14.251Z,77304.09
2022-09-01T02:58:48.953Z,77318.03
2022-09-01T03:01:24.864Z,77320.00
2022-09-01T03:03:55.424Z,77333.91
2022-09-01T03:06:24.451Z,77327.97
2022-09-01T03:08:52.780Z,77339.88
2022-09-01T03:11:19.436Z,77337.91
2022-09-01T03:13:46.467Z,77339.88
2022-09-01T03:16:13.352Z,77331.94
2022-09-01T03:18:40.166Z,77347.84
2022-09-01T03:21:08.492Z,77349.81
2022-09-01T03:23:35.826Z,77357.78
2022-09-01T03:26:03.061Z,77365.72
2022-09-01T03:28:29.916Z,77365.72
2022-09-01T03:30:57.842Z,77375.66
2022-09-01T03:33:26.637Z,77377.66
2022-09-01T03:35:54.520Z,77387.59
2022-09-01T03:38:24.637Z,77393.56
2022-09-01T03:40:58.447Z,77413.44
2022-09-01T03:43:27.676Z,77423.38
2022-09-01T03:46:02.126Z,77433.31
2022-09-01T03:48:31.688Z,77433.31
2022-09-01T03:51:02.741Z,77449.19
2022-09-01T03:53:31.927Z,77473.06
2022-09-01T03:55:58.908Z,77486.97
2022-09-01T03:58:26.309Z,77498.91
2022-09-01T04:00:56.073Z,77498.91
2022-09-01T04:03:28.866Z,77514.78
2022-09-01T04:05:56.401Z,77528.72
2022-09-01T04:08:32.627Z,77548.59
2022-09-01T04:11:03.830Z,77552.56
2022-09-01T04:13:36.783Z,77560.50
2022-09-01T04:16:10.523Z,77574.44
2022-09-01T04:18:37.245Z,77568.47
2022-09-01T04:21:07.167Z,77564.50
2022-09-01T04:23:37.074Z,77576.41
2022-09-01T04:26:11.415Z,77564.50
2022-09-01T04:28:47.142Z,77558.53
2022-09-01T04:31:18.701Z,77584.38
2022-09-01T04:33:52.822Z,77582.38
2022-09-01T04:36:22.364Z,77580.41
2022-09-01T04:39:00.724Z,77586.34
2022-09-01T04:41:31.181Z,77596.28
2022-09-01T04:44:00.241Z,77584.38
2022-09-01T04:46:31.547Z,77596.28
2022-09-01T04:48:58.784Z,77620.16
2022-09-01T04:51:28.192Z,77610.22
2022-09-01T04:53:56.124Z,77624.13
2022-09-01T04:56:23.291Z,77612.19
2022-09-01T04:58:52.197Z,77626.13
2022-09-01T05:01:21.312Z,77628.09
2022-09-01T05:03:56.563Z,77636.06
2022-09-01T05:06:23.325Z,77616.16
2022-09-01T05:08:50.490Z,77622.13
2022-09-01T05:11:17.936Z,77622.13
2022-09-01T05:13:49.230Z,77610.22
2022-09-01T05:16:24.888Z,77610.22
2022-09-01T05:18:54.316Z,77604.25
2022-09-01T05:21:28.224Z,77594.31
2022-09-01T05:23:55.367Z,77602.25
2022-09-01T05:26:26.265Z,77600.28
2022-09-01T05:28:58.921Z,77596.28
2022-09-01T05:31:28.630Z,77584.38
2022-09-01T05:33:58.210Z,77578.41
2022-09-01T05:36:25.768Z,77564.50
2022-09-01T05:38:53.341Z,77540.63
2022-09-01T05:41:21.165Z,77536.66
2022-09-01T05:43:55.194Z,77532.69
2022-09-01T05:46:26.481Z,77520.75
2022-09-01T05:48:54.920Z,77504.84
2022-09-01T05:51:44.232Z,77488.97
2022-09-01T05:54:12.213Z,77477.03
2022-09-01T05:56:43.984Z,77465.09
2022-09-01T05:59:23.601Z,77447.22
2022-09-01T06:01:51.269Z,77449.19
2022-09-01T06:04:19.095Z,77449.19
2022-09-01T06:07:06.898Z,77451.19
2022-09-01T06:09:39.924Z,77433.31
2022-09-01T06:12:08.527Z,77439.25
2022-09-01T06:14:52.798Z,77421.38
2022-09-01T06:17:54.025Z,77413.44
2022-09-01T06:20:23.094Z,77399.50
2022-09-01T06:22:53.259Z,77391.56
2022-09-01T06:25:20.698Z,77377.66
2022-09-01T06:31:13.386Z,77343.84
2022-09-01T06:33:40.400Z,77339.88
2022-09-01T06:36:12.307Z,77327.97
2022-09-01T06:38:41.700Z,77323.97
2022-09-01T06:41:13.103Z,77316.03
2022-09-01T06:43:55.451Z,77296.16
2022-09-01T06:46:25.243Z,77288.22
2022-09-01T06:48:56.161Z,77282.25
2022-09-01T06:54:35.655Z,77258.38
2022-09-01T07:00:43.112Z,77238.50
2022-09-01T07:07:01.617Z,77208.69
2022-09-01T07:33:54.314Z,77127.22
2022-09-01T07:47:59.501Z,77057.66
2022-09-01T07:50:40.446Z,77041.75
2022-09-01T07:53:22.525Z,77041.75
2022-09-01T07:55:51.627Z,77017.91
2022-09-01T07:58:48.886Z,76988.09
2022-09-01T08:01:19.421Z,76954.31
2022-09-01T08:07:03.227Z,76942.38
2022-09-01T08:09:37.806Z,76928.47
2022-09-01T08:16:53.013Z,76920.53
2022-09-01T08:19:20.197Z,76902.63
2022-09-01T08:21:46.784Z,76896.66
2022-09-01T08:24:16.549Z,76890.72
2022-09-01T08:26:56.920Z,76874.81
2022-09-01T08:29:58.906Z,76860.91
2022-09-01T08:32:46.696Z,76841.03
2022-09-01T08:35:16.329Z,76839.03
2022-09-01T08:46:30.695Z,76799.28
2022-09-01T08:51:49.608Z,76771.47
2022-09-01T08:54:29.358Z,76771.47
2022-09-01T08:57:02.059Z,76767.50
2022-09-01T09:00:27.946Z,76761.53
2022-09-01T09:03:17.766Z,76729.75
2022-09-01T09:06:11.979Z,76691.97
2022-09-01T09:09:07.940Z,76690.00
2022-09-01T09:12:04.470Z,76691.97
2022-09-01T09:14:53.754Z,76693.97
2022-09-01T09:17:27.197Z,76691.97
2022-09-01T09:19:53.981Z,76729.75
2022-09-01T09:22:21.490Z,76755.56
2022-09-01T09:25:03.962Z,76731.72
2022-09-01T09:27:40.064Z,76699.94
2022-09-01T09:30:11.278Z,76682.03
2022-09-01T09:36:55.480Z,76693.97
2022-09-01T09:39:27.207Z,76757.56
2022-09-01T09:42:10.547Z,76763.53
2022-09-01T09:44:49.002Z,76755.56
2022-09-01T09:47:43.653Z,76709.88
2022-09-01T09:50:20.218Z,76642.28
2022-09-01T09:52:48.112Z,76606.53
2022-09-01T09:55:22.456Z,76624.41
2022-09-01T09:57:51.071Z,76594.59
2022-09-01T10:00:25.955Z,76590.63
2022-09-01T10:03:08.601Z,76556.84
2022-09-01T10:05:44.610Z,76538.97
2022-09-01T10:08:37.474Z,76533.00
2022-09-01T10:11:06.731Z,76527.03
2022-09-01T10:13:36.773Z,76523.06
2022-09-01T10:16:10.549Z,76527.03
2022-09-01T10:18:41.335Z,76523.06
2022-09-01T10:21:25.950Z,76509.16
2022-09-01T10:23:53.439Z,76489.28
2022-09-01T10:26:32.183Z,76457.50
2022-09-01T10:29:02.848Z,76435.63
2022-09-01T10:31:32.487Z,76431.66
2022-09-01T10:34:02.561Z,76435.63
2022-09-01T10:36:34.813Z,76421.72
2022-09-01T10:39:06.099Z,76407.81
2022-09-01T10:41:53.252Z,76437.63
2022-09-01T10:44:38.904Z,76419.72
2022-09-01T10:47:13.559Z,76443.59
2022-09-01T10:49:47.193Z,76459.47
2022-09-01T10:52:43.460Z,76439.59
2022-09-01T10:55:24.885Z,76409.81
2022-09-01T10:59:30.141Z,76425.69
2022-09-01T11:03:56.890Z,76381.97
2022-09-01T11:07:12.277Z,76374.03
2022-09-01T11:09:43.268Z,76368.06
2022-09-01T11:12:58.685Z,76336.28
2022-09-01T11:15:35.923Z,76358.13
2022-09-01T11:18:07.959Z,76354.16
2022-09-01T11:20:41.259Z,76346.22
2022-09-01T11:23:25.308Z,76332.31
2022-09-01T11:26:20.642Z,76338.25
2022-09-01T11:28:47.371Z,76324.34
2022-09-01T11:31:25.917Z,76340.25
2022-09-01T11:34:11.137Z,76322.38
2022-09-01T11:36:47.439Z,76306.47
2022-09-01T11:39:19.082Z,76318.41
2022-09-01T11:42:09.639Z,76306.47
2022-09-01T11:45:20.714Z,76340.25
2022-09-01T11:47:51.900Z,76338.25
2022-09-01T11:50:28.840Z,76350.19
2022-09-01T11:53:04.712Z,76314.41
2022-09-01T11:55:51.207Z,76290.56
2022-09-01T11:58:30.936Z,76264.75
2022-09-01T12:01:11.410Z,76244.88
2022-09-01T12:03:38.193Z,76240.91
2022-09-01T12:06:09.382Z,76244.88
2022-09-01T12:08:38.833Z,76230.97
2022-09-01T12:11:07.431Z,76228.97
2022-09-01T12:13:34.978Z,76246.88
2022-09-01T12:16:17.926Z,76248.84
2022-09-01T12:18:51.763Z,76211.09
2022-09-01T12:21:43.776Z,76167.38
2022-09-01T12:24:15.214Z,76195.19
2022-09-01T12:26:42.483Z,76223.03
2022-09-01T12:29:11.330Z,76284.63
2022-09-01T12:31:41.235Z,76270.72
2022-09-01T12:34:37.365Z,76248.84
2022-09-01T12:37:14.688Z,76264.75
2022-09-01T12:39:50.363Z,76300.50
2022-09-01T12:42:19.610Z,76334.28
2022-09-01T12:44:51.021Z,76380.00
2022-09-01T12:47:36.273Z,76409.81
2022-09-01T12:50:16.467Z,76423.72
2022-09-01T12:53:15.203Z,76445.56
2022-09-01T12:55:57.248Z,76441.59
2022-09-01T12:58:26.314Z,76415.75
2022-09-01T13:01:04.043Z,76378.00
2022-09-01T13:03:31.457Z,76310.44
2022-09-01T13:06:03.082Z,76270.72
2022-09-01T13:08:33.189Z,76254.81
2022-09-01T13:11:11.026Z,76286.59
2022-09-01T13:13:37.966Z,76290.56
2022-09-01T13:16:13.173Z,76328.34
2022-09-01T13:21:31.072Z,76376.03
2022-09-01T13:23:57.793Z,76417.75
2022-09-01T13:26:24.594Z,76427.69
2022-09-01T13:28:51.729Z,76449.53
2022-09-01T13:31:34.361Z,76463.44
2022-09-01T13:34:22.042Z,76483.31
2022-09-01T13:36:52.446Z,76471.41
2022-09-01T13:39:20.960Z,76447.56
2022-09-01T13:41:48.308Z,76433.66
2022-09-01T13:44:17.166Z,76397.88
2022-09-01T13:47:01.172Z,76393.91
2022-09-01T13:52:19.231Z,76358.13
2022-09-01T13:54:45.992Z,76354.16
2022-09-01T13:57:14.390Z,76348.19
2022-09-01T13:59:41.897Z,76346.22
2022-09-01T14:02:08.624Z,76332.31
2022-09-01T14:04:35.422Z,76326.34
2022-09-01T14:07:02.822Z,76336.28
2022-09-01T14:09:29.485Z,76324.34
2022-09-01T14:11:57.120Z,76308.47
2022-09-01T14:14:24.247Z,76316.41
2022-09-01T14:17:11.229Z,76316.41
2022-09-01T14:19:37.837Z,76296.53
2022-09-01T14:22:07.598Z,76300.50
2022-09-01T14:24:43.654Z,76288.59
2022-09-01T14:27:14.011Z,76292.56
2022-09-01T14:32:09.127Z,76292.56
2022-09-01T14:34:38.111Z,76302.50
2022-09-01T14:37:07.391Z,76338.25
2022-09-01T14:40:00.727Z,76374.03
2022-09-01T14:42:28.772Z,76393.91
2022-09-01T14:44:55.986Z,76368.06
2022-09-01T14:47:25.056Z,76340.25
2022-09-01T14:49:55.809Z,76308.47
2022-09-01T14:52:24.855Z,76278.66
2022-09-01T14:54:53.595Z,76296.53
2022-09-01T14:57:29.766Z,76300.50
2022-09-01T14:59:59.564Z,76284.63
2022-09-01T15:02:29.020Z,76280.66
2022-09-01T15:05:01.743Z,76169.38
2022-09-01T15:07:28.472Z,75919.03
2022-09-01T15:09:55.084Z,75692.53
2022-09-01T15:12:22.436Z,75670.69
2022-09-01T15:14:49.271Z,75523.69
2022-09-01T15:17:15.802Z,75531.63
2022-09-01T15:19:42.542Z,75565.41
2022-09-01T15:22:10.953Z,75625.00
2022-09-01T15:24:37.609Z,75511.75
2022-09-01T15:27:06.573Z,75279.34
2022-09-01T15:29:34.227Z,75076.72
2022-09-01T15:32:04.082Z,75118.44
2022-09-01T15:34:30.607Z,75114.47
2022-09-01T15:36:57.087Z,75112.47
2022-09-01T15:39:23.632Z,75160.16
2022-09-01T15:41:50.931Z,75046.94
2022-09-01T15:44:17.411Z,75035.00
2022-09-01T15:46:44.462Z,75102.53
2022-09-01T15:49:12.344Z,75176.03
2022-09-01T15:51:45.096Z,75126.38
2022-09-01T15:54:14.682Z,75203.84
2022-09-01T15:56:42.962Z,75191.94
2022-09-01T15:59:10.791Z,75180.00
2022-09-01T16:01:44.272Z,75132.34
2022-09-01T16:04:19.073Z,75178.03
2022-09-01T16:06:47.239Z,75380.66
2022-09-01T16:09:16.536Z,75573.34
2022-09-01T16:11:43.223Z,75777.97
2022-09-01T16:14:09.863Z,75919.03
2022-09-01T16:16:52.409Z,76087.91
2022-09-01T16:19:18.894Z,76211.09
2022-09-01T16:22:06.697Z,76320.38
2022-09-01T16:24:44.567Z,76340.25
2022-09-01T16:27:15.512Z,76395.91
2022-09-01T16:29:48.704Z,76407.81
2022-09-01T16:32:17.423Z,76457.50
2022-09-01T16:34:47.030Z,76465.44
2022-09-01T16:37:43.285Z,76465.44
2022-09-01T16:40:22.203Z,76515.13
2022-09-01T16:43:09.770Z,76521.09
2022-09-01T16:46:03.974Z,76548.91
2022-09-01T16:48:36.921Z,76566.78
2022-09-01T16:51:46.212Z,76586.66
2022-09-01T16:54:40.087Z,76600.56
2022-09-01T16:57:46.657Z,76616.47
2022-09-01T17:00:18.288Z,76630.38
2022-09-01T17:03:01.127Z,76646.28
2022-09-01T17:05:33.635Z,76650.25
2022-09-01T17:08:07.740Z,76656.22
2022-09-01T17:11:07.118Z,76674.09
2022-09-01T17:13:40.217Z,76682.03
2022-09-01T17:16:12.727Z,76703.91
2022-09-01T17:18:44.507Z,76713.84
2022-09-01T17:21:21.068Z,76721.78
2022-09-01T17:23:57.594Z,76741.66
2022-09-01T17:26:28.214Z,76749.59
2022-09-01T17:29:06.067Z,76753.59
2022-09-01T17:32:10.481Z,76753.59
2022-09-01T17:35:03.354Z,76789.34
2022-09-01T17:37:54.475Z,76801.28
2022-09-01T17:40:36.503Z,76823.13
2022-09-01T17:43:17.011Z,76831.09
2022-09-01T17:45:51.247Z,76848.97
2022-09-01T17:48:45.956Z,76847.00
2022-09-01T17:51:22.593Z,76862.88
2022-09-01T17:54:27.696Z,76884.75
2022-09-01T17:57:14.871Z,76896.66
2022-09-01T18:00:01.791Z,76912.56
2022-09-01T18:02:52.510Z,76928.47
2022-09-01T18:05:24.639Z,76948.34
2022-09-01T18:08:15.621Z,76976.16
2022-09-01T18:11:08.155Z,76988.09
2022-09-01T18:13:55.209Z,77000.00
2022-09-01T18:16:26.328Z,77015.91
2022-09-01T18:18:53.950Z,77015.91
2022-09-01T18:21:29.477Z,77021.88
2022-09-01T18:24:22.144Z,77031.81
2022-09-01T18:26:58.241Z,77035.78
2022-09-01T18:29:29.803Z,77057.66
2022-09-01T18:32:08.049Z,77061.63
2022-09-01T18:34:58.951Z,77077.53
2022-09-01T18:37:51.212Z,77089.44
2022-09-01T18:40:42.808Z,77111.31
2022-09-01T18:43:25.852Z,77111.31
2022-09-01T18:46:11.222Z,77135.16
2022-09-01T18:49:00.927Z,77125.22
2022-09-01T18:51:31.825Z,77145.09
2022-09-01T18:54:26.796Z,77145.09
2022-09-01T18:57:03.143Z,77149.06
2022-09-01T18:59:53.454Z,77147.09
2022-09-01T19:02:36.286Z,77159.00
2022-09-01T19:05:33.273Z,77170.94
2022-09-01T19:08:27.950Z,77172.94
2022-09-01T19:11:22.476Z,77172.94
2022-09-01T19:14:08.806Z,77198.75
2022-09-01T19:16:52.276Z,77218.63
2022-09-01T19:19:30.893Z,77224.59
2022-09-01T19:21:57.484Z,77228.56
2022-09-01T19:24:32.738Z,77228.56
2022-09-01T19:27:21.288Z,77230.56
2022-09-01T19:29:53.145Z,77238.50
2022-09-01T19:32:21.987Z,77244.47
2022-09-01T19:35:06.470Z,77246.47
2022-09-01T19:37:33.121Z,77238.50
2022-09-01T19:40:01.074Z,77250.44
2022-09-01T19:42:40.921Z,77250.44
2022-09-01T19:45:13.816Z,77270.31
2022-09-01T19:48:02.132Z,77282.25
2022-09-01T19:50:57.540Z,77278.25
2022-09-01T19:53:54.450Z,77294.16
2022-09-01T19:56:49.437Z,77286.22
2022-09-01T20:00:08.490Z,77296.16
2022-09-01T20:02:41.131Z,77304.09
2022-09-01T20:05:31.753Z,77308.09
2022-09-01T20:08:07.787Z,77308.09
2022-09-01T20:10:59.943Z,77310.06
2022-09-01T20:14:03.610Z,77310.06
2022-09-01T20:16:42.732Z,77310.06
2022-09-01T20:19:17.112Z,77318.03
2022-09-01T20:21:47.954Z,77308.09
2022-09-01T20:24:39.731Z,77325.97
2022-09-01T20:27:32.155Z,77327.97
2022-09-01T20:30:04.637Z,77337.91
2022-09-01T20:32:43.459Z,77343.84
2022-09-01T20:35:17.809Z,77347.84
2022-09-01T20:37:55.168Z,77351.81
2022-09-01T20:40:34.837Z,77359.75
2022-09-01T20:43:25.175Z,77357.78
2022-09-01T20:45:51.992Z,77371.69
2022-09-01T20:48:23.732Z,77377.66
2022-09-01T20:51:27.656Z,77383.59
2022-09-01T20:54:13.547Z,77391.56
2022-09-01T20:56:43.214Z,77389.56
2022-09-01T20:59:27.177Z,77397.53
2022-09-01T21:02:33.228Z,77395.53
2022-09-01T21:05:06.805Z,77401.50
2022-09-01T21:07:56.298Z,77405.47
2022-09-01T21:10:42.064Z,77419.38
2022-09-01T21:13:08.630Z,77425.34
2022-09-01T21:16:00.143Z,77435.28
2022-09-01T21:19:00.819Z,77443.25
2022-09-01T21:22:02.641Z,77445.22
2022-09-01T21:24:29.275Z,77429.31
2022-09-01T21:26:57.634Z,77447.22
2022-09-01T21:29:28.835Z,77445.22
2022-09-01T21:31:56.768Z,77451.19
2022-09-01T21:34:23.431Z,77447.22
2022-09-01T21:36:50.292Z,77451.19
2022-09-01T21:39:21.991Z,77441.25
2022-09-01T21:41:48.959Z,77437.28
2022-09-01T21:44:15.812Z,77441.25
2022-09-01T21:46:42.748Z,77461.13
2022-09-01T21:49:10.656Z,77459.13
2022-09-01T21:51:37.300Z,77453.19
2022-09-01T21:54:04.003Z,77471.06
2022-09-01T21:56:31.731Z,77481.00
2022-09-01T21:58:59.480Z,77481.00
2022-09-01T22:01:31.158Z,77477.03
2022-09-01T22:03:58.911Z,77486.97
2022-09-01T22:06:25.903Z,77494.91
2022-09-01T22:08:53.010Z,77500.88
2022-09-01T22:11:21.311Z,77488.97
2022-09-01T22:13:48.972Z,77498.91
2022-09-01T22:16:20.571Z,77496.91
2022-09-01T22:18:47.527Z,77510.81
2022-09-01T22:21:15.308Z,77514.78
2022-09-01T22:23:42.915Z,77520.75
2022-09-01T22:26:17.096Z,77516.78
2022-09-01T22:28:43.654Z,77524.72
2022-09-01T22:31:17.623Z,77514.78
2022-09-01T22:33:45.008Z,77528.72
2022-09-01T22:36:18.539Z,77532.69
2022-09-01T22:38:45.036Z,77520.75
2022-09-01T22:41:11.659Z,77536.66
2022-09-01T22:43:38.179Z,77540.63
2022-09-01T22:46:06.373Z,77544.63
2022-09-01T22:48:32.945Z,77544.63
2022-09-01T22:51:01.956Z,77528.72
2022-09-01T22:53:31.636Z,77544.63
2022-09-01T22:55:58.140Z,77544.63
2022-09-01T22:58:24.672Z,77556.53
2022-09-01T23:00:55.862Z,77556.53
2022-09-01T23:03:22.873Z,77562.50
2022-09-01T23:05:50.833Z,77566.47
2022-09-01T23:08:17.519Z,77568.47
2022-09-01T23:10:44.104Z,77566.47
2022-09-01T23:13:10.599Z,77568.47
2022-09-01T23:15:37.613Z,77558.53
2022-09-01T23:18:04.164Z,77564.50
2022-09-01T23:20:30.663Z,77580.41
2022-09-01T23:22:57.211Z,77584.38
2022-09-01T23:25:24.640Z,77586.34
2022-09-01T23:27:51.280Z,77596.28
2022-09-01T23:30:17.832Z,77588.34
2022-09-01T23:32:44.368Z,77594.31
2022-09-01T23:35:11.106Z,77594.31
2022-09-01T23:37:37.728Z,77596.28
2022-09-01T23:40:06.296Z,77600.28
2022-09-01T23:42:33.041Z,77612.19
2022-09-01T23:44:59.582Z,77610.22
2022-09-01T23:47:26.269Z,77596.28
2022-09-01T23:49:52.783Z,77600.28
2022-09-01T23:52:21.246Z,77592.31
2022-09-01T23:54:47.749Z,77610.22
2022-09-01T23:57:14.329Z,77622.13
2022-09-01T23:59:40.912Z,77604.25
